sensor_id;sensor_type;location;lat;lon;timestamp;P1;durP1;ratioP1;P2;durP2;ratioP2
47617;SDS011;33336;36.728;-4.414;2023-04-24T00:04:04;4.93;;;1.80;;
47617;SDS011;33336;36.728;-4.414;2023-04-24T00:09:08;5.88;;;1.65;;
47617;SDS011;33336;36.728;-4.414;2023-04-24T00:14:12;3.03;;;1.55;;
47617;SDS011;33336;36.728;-4.414;2023-04-24T00:19:16;3.05;;;1.55;;
47617;SDS011;33336;36.728;-4.414;2023-04-24T00:24:21;3.67;;;2.10;;
47617;SDS011;33336;36.728;-4.414;2023-04-24T00:29:26;2.85;;;1.88;;
47617;SDS011;33336;36.728;-4.414;2023-04-24T00:34:30;6.70;;;1.70;;
47617;SDS011;33336;36.728;-4.414;2023-04-24T00:39:33;3.58;;;1.67;;
47617;SDS011;33336;36.728;-4.414;2023-04-24T00:44:37;5.07;;;2.75;;
47617;SDS011;33336;36.728;-4.414;2023-04-24T00:49:42;9.00;;;2.30;;
47617;SDS011;33336;36.728;-4.414;2023-04-24T00:54:44;5.28;;;1.88;;
47617;SDS011;33336;36.728;-4.414;2023-04-24T00:59:49;5.38;;;2.22;;
47617;SDS011;33336;36.728;-4.414;2023-04-24T01:04:52;4.03;;;1.98;;
47617;SDS011;33336;36.728;-4.414;2023-04-24T01:09:56;3.80;;;1.90;;
47617;SDS011;33336;36.728;-4.414;2023-04-24T01:15:00;4.22;;;1.50;;
47617;SDS011;33336;36.728;-4.414;2023-04-24T01:20:05;5.80;;;2.90;;
47617;SDS011;33336;36.728;-4.414;2023-04-24T01:25:10;2.53;;;1.85;;
47617;SDS011;33336;36.728;-4.414;2023-04-24T01:30:14;5.68;;;2.78;;
47617;SDS011;33336;36.728;-4.414;2023-04-24T01:35:16;3.30;;;1.88;;
47617;SDS011;33336;36.728;-4.414;2023-04-24T01:40:21;2.70;;;1.92;;
47617;SDS011;33336;36.728;-4.414;2023-04-24T01:45:24;6.22;;;2.20;;
47617;SDS011;33336;36.728;-4.414;2023-04-24T01:50:28;3.08;;;1.70;;
47617;SDS011;33336;36.728;-4.414;2023-04-24T01:55:32;5.47;;;2.15;;
47617;SDS011;33336;36.728;-4.414;2023-04-24T02:00:36;3.97;;;1.60;;
47617;SDS011;33336;36.728;-4.414;2023-04-24T02:05:38;4.20;;;1.55;;
47617;SDS011;33336;36.728;-4.414;2023-04-24T02:10:43;4.60;;;1.60;;
47617;SDS011;33336;36.728;-4.414;2023-04-24T02:15:46;3.35;;;1.33;;
47617;SDS011;33336;36.728;-4.414;2023-04-24T02:20:49;5.38;;;1.42;;
47617;SDS011;33336;36.728;-4.414;2023-04-24T02:25:54;4.10;;;1.00;;
47617;SDS011;33336;36.728;-4.414;2023-04-24T02:30:56;5.35;;;1.38;;
47617;SDS011;33336;36.728;-4.414;2023-04-24T02:36:00;5.22;;;1.45;;
47617;SDS011;33336;36.728;-4.414;2023-04-24T02:41:04;1.85;;;0.85;;
47617;SDS011;33336;36.728;-4.414;2023-04-24T02:46:07;4.20;;;1.30;;
47617;SDS011;33336;36.728;-4.414;2023-04-24T02:51:10;2.47;;;1.02;;
47617;SDS011;33336;36.728;-4.414;2023-04-24T02:56:15;3.75;;;1.10;;
47617;SDS011;33336;36.728;-4.414;2023-04-24T03:01:18;2.97;;;1.02;;
47617;SDS011;33336;36.728;-4.414;2023-04-24T03:06:21;4.18;;;1.10;;
47617;SDS011;33336;36.728;-4.414;2023-04-24T03:11:26;5.07;;;1.25;;
47617;SDS011;33336;36.728;-4.414;2023-04-24T03:16:29;2.35;;;1.23;;
47617;SDS011;33336;36.728;-4.414;2023-04-24T03:21:33;3.03;;;1.42;;
47617;SDS011;33336;36.728;-4.414;2023-04-24T03:26:37;4.05;;;1.40;;
47617;SDS011;33336;36.728;-4.414;2023-04-24T03:31:40;5.25;;;1.45;;
47617;SDS011;33336;36.728;-4.414;2023-04-24T03:36:43;4.63;;;1.13;;
47617;SDS011;33336;36.728;-4.414;2023-04-24T03:41:50;4.82;;;1.48;;
47617;SDS011;33336;36.728;-4.414;2023-04-24T03:46:53;3.85;;;1.48;;
47617;SDS011;33336;36.728;-4.414;2023-04-24T03:51:56;2.85;;;1.08;;
47617;SDS011;33336;36.728;-4.414;2023-04-24T03:57:01;4.28;;;1.40;;
47617;SDS011;33336;36.728;-4.414;2023-04-24T04:02:05;4.10;;;1.40;;
47617;SDS011;33336;36.728;-4.414;2023-04-24T04:07:08;4.85;;;1.65;;
47617;SDS011;33336;36.728;-4.414;2023-04-24T04:12:14;3.08;;;1.33;;
47617;SDS011;33336;36.728;-4.414;2023-04-24T04:17:17;5.28;;;1.48;;
47617;SDS011;33336;36.728;-4.414;2023-04-24T04:22:19;1.48;;;1.00;;
47617;SDS011;33336;36.728;-4.414;2023-04-24T04:27:24;5.88;;;1.70;;
47617;SDS011;33336;36.728;-4.414;2023-04-24T04:32:27;6.72;;;1.42;;
47617;SDS011;33336;36.728;-4.414;2023-04-24T04:37:31;2.13;;;1.10;;
47617;SDS011;33336;36.728;-4.414;2023-04-24T04:42:37;6.07;;;1.55;;
47617;SDS011;33336;36.728;-4.414;2023-04-24T04:47:40;2.90;;;1.52;;
47617;SDS011;33336;36.728;-4.414;2023-04-24T04:52:43;4.97;;;1.33;;
47617;SDS011;33336;36.728;-4.414;2023-04-24T04:57:48;2.88;;;1.40;;
47617;SDS011;33336;36.728;-4.414;2023-04-24T05:02:51;4.00;;;1.60;;
47617;SDS011;33336;36.728;-4.414;2023-04-24T05:07:54;4.32;;;1.52;;
47617;SDS011;33336;36.728;-4.414;2023-04-24T05:12:59;5.38;;;1.73;;
47617;SDS011;33336;36.728;-4.414;2023-04-24T05:18:02;3.10;;;1.40;;
47617;SDS011;33336;36.728;-4.414;2023-04-24T05:23:05;3.28;;;1.15;;
47617;SDS011;33336;36.728;-4.414;2023-04-24T05:28:10;5.88;;;1.58;;
47617;SDS011;33336;36.728;-4.414;2023-04-24T05:33:13;2.95;;;1.75;;
47617;SDS011;33336;36.728;-4.414;2023-04-24T05:38:16;3.42;;;1.75;;
47617;SDS011;33336;36.728;-4.414;2023-04-24T05:43:21;3.30;;;1.88;;
47617;SDS011;33336;36.728;-4.414;2023-04-24T05:48:24;5.60;;;1.80;;
47617;SDS011;33336;36.728;-4.414;2023-04-24T05:53:27;2.42;;;1.40;;
47617;SDS011;33336;36.728;-4.414;2023-04-24T05:58:33;5.88;;;1.95;;
47617;SDS011;33336;36.728;-4.414;2023-04-24T06:03:37;7.03;;;2.30;;
47617;SDS011;33336;36.728;-4.414;2023-04-24T06:08:41;6.82;;;2.55;;
47617;SDS011;33336;36.728;-4.414;2023-04-24T06:13:46;6.75;;;2.05;;
47617;SDS011;33336;36.728;-4.414;2023-04-24T06:18:49;11.07;;;2.53;;
47617;SDS011;33336;36.728;-4.414;2023-04-24T06:23:52;11.60;;;2.55;;
47617;SDS011;33336;36.728;-4.414;2023-04-24T06:28:58;8.93;;;2.42;;
47617;SDS011;33336;36.728;-4.414;2023-04-24T06:34:01;7.03;;;2.72;;
47617;SDS011;33336;36.728;-4.414;2023-04-24T06:39:04;12.48;;;3.15;;
47617;SDS011;33336;36.728;-4.414;2023-04-24T06:44:08;13.48;;;3.20;;
47617;SDS011;33336;36.728;-4.414;2023-04-24T06:49:11;10.93;;;2.90;;
47617;SDS011;33336;36.728;-4.414;2023-04-24T06:54:16;12.32;;;2.90;;
47617;SDS011;33336;36.728;-4.414;2023-04-24T06:59:21;13.55;;;3.45;;
47617;SDS011;33336;36.728;-4.414;2023-04-24T07:04:24;12.73;;;2.85;;
47617;SDS011;33336;36.728;-4.414;2023-04-24T07:09:27;11.23;;;3.47;;
47617;SDS011;33336;36.728;-4.414;2023-04-24T07:14:32;11.68;;;3.47;;
47617;SDS011;33336;36.728;-4.414;2023-04-24T07:19:35;9.93;;;3.13;;
47617;SDS011;33336;36.728;-4.414;2023-04-24T07:24:38;16.75;;;3.92;;
47617;SDS011;33336;36.728;-4.414;2023-04-24T07:29:42;11.18;;;3.63;;
47617;SDS011;33336;36.728;-4.414;2023-04-24T07:34:45;9.35;;;2.90;;
47617;SDS011;33336;36.728;-4.414;2023-04-24T07:39:48;10.95;;;2.63;;
47617;SDS011;33336;36.728;-4.414;2023-04-24T07:44:52;10.65;;;4.07;;
47617;SDS011;33336;36.728;-4.414;2023-04-24T07:49:56;12.40;;;2.75;;
47617;SDS011;33336;36.728;-4.414;2023-04-24T07:54:59;4.03;;;1.48;;
47617;SDS011;33336;36.728;-4.414;2023-04-24T08:00:06;2.47;;;1.50;;
47617;SDS011;33336;36.728;-4.414;2023-04-24T08:05:10;4.70;;;2.22;;
47617;SDS011;33336;36.728;-4.414;2023-04-24T08:10:12;6.43;;;2.30;;
47617;SDS011;33336;36.728;-4.414;2023-04-24T08:15:17;17.65;;;3.95;;
47617;SDS011;33336;36.728;-4.414;2023-04-24T08:20:20;12.38;;;2.20;;
47617;SDS011;33336;36.728;-4.414;2023-04-24T08:25:23;8.38;;;2.30;;
47617;SDS011;33336;36.728;-4.414;2023-04-24T08:30:28;11.52;;;2.45;;
47617;SDS011;33336;36.728;-4.414;2023-04-24T08:35:31;6.15;;;2.53;;
47617;SDS011;33336;36.728;-4.414;2023-04-24T08:40:34;6.60;;;2.33;;
47617;SDS011;33336;36.728;-4.414;2023-04-24T08:45:40;4.40;;;2.10;;
47617;SDS011;33336;36.728;-4.414;2023-04-24T08:50:43;4.57;;;2.13;;
47617;SDS011;33336;36.728;-4.414;2023-04-24T08:55:47;6.50;;;2.83;;
47617;SDS011;33336;36.728;-4.414;2023-04-24T09:00:51;9.45;;;2.97;;
47617;SDS011;33336;36.728;-4.414;2023-04-24T09:05:56;7.93;;;3.20;;
47617;SDS011;33336;36.728;-4.414;2023-04-24T09:11:00;6.90;;;2.95;;
47617;SDS011;33336;36.728;-4.414;2023-04-24T09:16:05;5.10;;;1.95;;
47617;SDS011;33336;36.728;-4.414;2023-04-24T09:21:09;8.32;;;2.53;;
47617;SDS011;33336;36.728;-4.414;2023-04-24T09:26:12;5.82;;;2.42;;
47617;SDS011;33336;36.728;-4.414;2023-04-24T09:31:18;8.50;;;2.85;;
47617;SDS011;33336;36.728;-4.414;2023-04-24T09:36:29;11.75;;;4.15;;
47617;SDS011;33336;36.728;-4.414;2023-04-24T09:41:35;8.43;;;3.58;;
47617;SDS011;33336;36.728;-4.414;2023-04-24T09:46:49;6.68;;;2.63;;
47617;SDS011;33336;36.728;-4.414;2023-04-24T09:52:02;8.73;;;2.57;;
47617;SDS011;33336;36.728;-4.414;2023-04-24T09:57:06;7.90;;;2.47;;
47617;SDS011;33336;36.728;-4.414;2023-04-24T10:02:18;8.07;;;2.92;;
47617;SDS011;33336;36.728;-4.414;2023-04-24T10:07:21;9.55;;;3.13;;
47617;SDS011;33336;36.728;-4.414;2023-04-24T10:12:24;7.30;;;2.35;;
47617;SDS011;33336;36.728;-4.414;2023-04-24T10:17:30;5.57;;;2.20;;
47617;SDS011;33336;36.728;-4.414;2023-04-24T10:22:34;8.88;;;2.90;;
47617;SDS011;33336;36.728;-4.414;2023-04-24T10:27:38;8.65;;;2.60;;
47617;SDS011;33336;36.728;-4.414;2023-04-24T10:32:43;8.20;;;2.47;;
47617;SDS011;33336;36.728;-4.414;2023-04-24T10:37:47;7.25;;;2.20;;
47617;SDS011;33336;36.728;-4.414;2023-04-24T10:42:53;5.35;;;2.47;;
47617;SDS011;33336;36.728;-4.414;2023-04-24T10:47:58;12.98;;;3.13;;
47617;SDS011;33336;36.728;-4.414;2023-04-24T10:53:06;8.85;;;2.22;;
47617;SDS011;33336;36.728;-4.414;2023-04-24T10:58:10;6.10;;;2.22;;
47617;SDS011;33336;36.728;-4.414;2023-04-24T11:03:25;8.75;;;2.53;;
47617;SDS011;33336;36.728;-4.414;2023-04-24T11:08:32;8.88;;;2.45;;
47617;SDS011;33336;36.728;-4.414;2023-04-24T11:19:08;6.77;;;1.97;;
47617;SDS011;33336;36.728;-4.414;2023-04-24T11:24:29;5.60;;;1.60;;
47617;SDS011;33336;36.728;-4.414;2023-04-24T11:29:43;8.45;;;1.88;;
47617;SDS011;33336;36.728;-4.414;2023-04-24T11:34:52;7.15;;;2.20;;
47617;SDS011;33336;36.728;-4.414;2023-04-24T11:39:57;6.63;;;1.50;;
47617;SDS011;33336;36.728;-4.414;2023-04-24T11:45:00;4.03;;;1.60;;
47617;SDS011;33336;36.728;-4.414;2023-04-24T11:50:07;9.70;;;2.60;;
47617;SDS011;33336;36.728;-4.414;2023-04-24T11:55:22;4.88;;;1.58;;
47617;SDS011;33336;36.728;-4.414;2023-04-24T12:00:27;7.10;;;1.90;;
47617;SDS011;33336;36.728;-4.414;2023-04-24T12:05:33;5.95;;;1.88;;
47617;SDS011;33336;36.728;-4.414;2023-04-24T12:10:36;5.40;;;2.13;;
47617;SDS011;33336;36.728;-4.414;2023-04-24T12:15:39;5.50;;;1.63;;
47617;SDS011;33336;36.728;-4.414;2023-04-24T12:20:45;11.20;;;2.42;;
47617;SDS011;33336;36.728;-4.414;2023-04-24T12:25:47;5.63;;;1.50;;
47617;SDS011;33336;36.728;-4.414;2023-04-24T12:30:54;7.00;;;2.13;;
47617;SDS011;33336;36.728;-4.414;2023-04-24T12:35:58;5.95;;;2.28;;
47617;SDS011;33336;36.728;-4.414;2023-04-24T12:41:03;6.90;;;2.15;;
47617;SDS011;33336;36.728;-4.414;2023-04-24T12:46:07;5.03;;;2.42;;
47617;SDS011;33336;36.728;-4.414;2023-04-24T12:51:12;5.70;;;1.80;;
47617;SDS011;33336;36.728;-4.414;2023-04-24T12:56:15;5.65;;;2.25;;
47617;SDS011;33336;36.728;-4.414;2023-04-24T13:01:18;5.93;;;1.90;;
47617;SDS011;33336;36.728;-4.414;2023-04-24T13:06:22;6.38;;;1.90;;
47617;SDS011;33336;36.728;-4.414;2023-04-24T13:11:28;5.20;;;1.88;;
47617;SDS011;33336;36.728;-4.414;2023-04-24T13:16:31;4.57;;;1.52;;
47617;SDS011;33336;36.728;-4.414;2023-04-24T13:21:36;3.50;;;1.23;;
47617;SDS011;33336;36.728;-4.414;2023-04-24T13:26:38;6.07;;;1.60;;
47617;SDS011;33336;36.728;-4.414;2023-04-24T13:31:41;8.10;;;2.05;;
47617;SDS011;33336;36.728;-4.414;2023-04-24T13:36:45;5.70;;;1.52;;
47617;SDS011;33336;36.728;-4.414;2023-04-24T13:41:48;7.18;;;1.88;;
47617;SDS011;33336;36.728;-4.414;2023-04-24T13:46:52;3.08;;;1.48;;
47617;SDS011;33336;36.728;-4.414;2023-04-24T13:51:59;3.92;;;1.25;;
47617;SDS011;33336;36.728;-4.414;2023-04-24T13:57:02;4.68;;;1.90;;
47617;SDS011;33336;36.728;-4.414;2023-04-24T14:02:07;4.75;;;1.20;;
47617;SDS011;33336;36.728;-4.414;2023-04-24T14:07:12;5.45;;;1.77;;
47617;SDS011;33336;36.728;-4.414;2023-04-24T14:12:16;8.30;;;1.63;;
47617;SDS011;33336;36.728;-4.414;2023-04-24T14:17:20;4.55;;;1.92;;
47617;SDS011;33336;36.728;-4.414;2023-04-24T14:22:25;3.28;;;1.80;;
47617;SDS011;33336;36.728;-4.414;2023-04-24T14:27:28;5.40;;;1.90;;
47617;SDS011;33336;36.728;-4.414;2023-04-24T14:32:31;3.92;;;1.83;;
47617;SDS011;33336;36.728;-4.414;2023-04-24T14:37:36;7.80;;;2.38;;
47617;SDS011;33336;36.728;-4.414;2023-04-24T14:42:39;5.45;;;1.45;;
47617;SDS011;33336;36.728;-4.414;2023-04-24T14:47:42;6.47;;;1.70;;
47617;SDS011;33336;36.728;-4.414;2023-04-24T14:52:48;7.28;;;2.05;;
47617;SDS011;33336;36.728;-4.414;2023-04-24T14:57:51;4.97;;;1.85;;
47617;SDS011;33336;36.728;-4.414;2023-04-24T15:02:54;3.22;;;1.60;;
47617;SDS011;33336;36.728;-4.414;2023-04-24T15:07:58;6.30;;;1.80;;
47617;SDS011;33336;36.728;-4.414;2023-04-24T15:13:01;4.72;;;2.08;;
47617;SDS011;33336;36.728;-4.414;2023-04-24T15:18:04;3.88;;;1.42;;
47617;SDS011;33336;36.728;-4.414;2023-04-24T15:23:11;3.55;;;1.67;;
47617;SDS011;33336;36.728;-4.414;2023-04-24T15:28:13;3.13;;;1.00;;
47617;SDS011;33336;36.728;-4.414;2023-04-24T15:33:18;5.25;;;1.83;;
47617;SDS011;33336;36.728;-4.414;2023-04-24T15:38:23;5.85;;;1.30;;
47617;SDS011;33336;36.728;-4.414;2023-04-24T15:43:26;2.72;;;1.05;;
47617;SDS011;33336;36.728;-4.414;2023-04-24T15:48:31;2.20;;;1.23;;
47617;SDS011;33336;36.728;-4.414;2023-04-24T15:53:36;2.90;;;1.02;;
47617;SDS011;33336;36.728;-4.414;2023-04-24T15:58:39;4.13;;;1.35;;
47617;SDS011;33336;36.728;-4.414;2023-04-24T16:03:42;3.15;;;1.35;;
47617;SDS011;33336;36.728;-4.414;2023-04-24T16:08:47;5.88;;;1.30;;
47617;SDS011;33336;36.728;-4.414;2023-04-24T16:13:50;2.92;;;1.35;;
47617;SDS011;33336;36.728;-4.414;2023-04-24T16:18:53;3.35;;;1.50;;
47617;SDS011;33336;36.728;-4.414;2023-04-24T16:23:57;3.47;;;1.40;;
47617;SDS011;33336;36.728;-4.414;2023-04-24T16:29:00;5.33;;;0.97;;
47617;SDS011;33336;36.728;-4.414;2023-04-24T16:34:03;3.22;;;1.33;;
47617;SDS011;33336;36.728;-4.414;2023-04-24T16:39:07;4.35;;;1.15;;
47617;SDS011;33336;36.728;-4.414;2023-04-24T16:49:13;1.50;;;1.10;;
47617;SDS011;33336;36.728;-4.414;2023-04-24T16:54:17;3.47;;;1.00;;
47617;SDS011;33336;36.728;-4.414;2023-04-24T16:59:21;3.50;;;1.60;;
47617;SDS011;33336;36.728;-4.414;2023-04-24T17:04:24;3.22;;;0.98;;
47617;SDS011;33336;36.728;-4.414;2023-04-24T17:09:28;3.58;;;1.23;;
47617;SDS011;33336;36.728;-4.414;2023-04-24T17:14:31;4.00;;;0.98;;
47617;SDS011;33336;36.728;-4.414;2023-04-24T17:19:34;1.65;;;1.10;;
47617;SDS011;33336;36.728;-4.414;2023-04-24T17:24:38;3.25;;;0.70;;
47617;SDS011;33336;36.728;-4.414;2023-04-24T17:34:44;4.50;;;1.48;;
47617;SDS011;33336;36.728;-4.414;2023-04-24T17:39:50;5.20;;;1.10;;
47617;SDS011;33336;36.728;-4.414;2023-04-24T17:44:52;5.80;;;1.57;;
47617;SDS011;33336;36.728;-4.414;2023-04-24T17:49:55;2.65;;;1.20;;
47617;SDS011;33336;36.728;-4.414;2023-04-24T17:54:59;4.70;;;1.52;;
47617;SDS011;33336;36.728;-4.414;2023-04-24T18:00:04;1.77;;;1.05;;
47617;SDS011;33336;36.728;-4.414;2023-04-24T18:05:07;1.42;;;1.00;;
47617;SDS011;33336;36.728;-4.414;2023-04-24T18:10:13;8.65;;;1.55;;
47617;SDS011;33336;36.728;-4.414;2023-04-24T18:15:15;3.80;;;1.65;;
47617;SDS011;33336;36.728;-4.414;2023-04-24T18:20:18;3.20;;;1.10;;
47617;SDS011;33336;36.728;-4.414;2023-04-24T18:25:23;2.67;;;1.60;;
47617;SDS011;33336;36.728;-4.414;2023-04-24T18:30:27;2.47;;;1.40;;
47617;SDS011;33336;36.728;-4.414;2023-04-24T18:35:30;3.45;;;2.40;;
47617;SDS011;33336;36.728;-4.414;2023-04-24T18:40:35;3.88;;;1.23;;
47617;SDS011;33336;36.728;-4.414;2023-04-24T18:45:38;6.18;;;1.90;;
47617;SDS011;33336;36.728;-4.414;2023-04-24T18:50:41;4.45;;;1.70;;
47617;SDS011;33336;36.728;-4.414;2023-04-24T18:55:46;7.30;;;2.03;;
47617;SDS011;33336;36.728;-4.414;2023-04-24T19:00:49;7.65;;;1.63;;
47617;SDS011;33336;36.728;-4.414;2023-04-24T19:05:52;2.17;;;1.60;;
47617;SDS011;33336;36.728;-4.414;2023-04-24T19:10:56;4.60;;;1.98;;
47617;SDS011;33336;36.728;-4.414;2023-04-24T19:15:59;10.48;;;3.67;;
47617;SDS011;33336;36.728;-4.414;2023-04-24T19:21:02;4.50;;;2.50;;
47617;SDS011;33336;36.728;-4.414;2023-04-24T19:26:06;4.03;;;2.17;;
47617;SDS011;33336;36.728;-4.414;2023-04-24T19:31:10;2.53;;;1.73;;
47617;SDS011;33336;36.728;-4.414;2023-04-24T19:36:13;5.03;;;2.58;;
47617;SDS011;33336;36.728;-4.414;2023-04-24T19:41:18;4.82;;;2.08;;
47617;SDS011;33336;36.728;-4.414;2023-04-24T19:46:21;3.30;;;1.70;;
47617;SDS011;33336;36.728;-4.414;2023-04-24T19:51:25;2.60;;;2.10;;
47617;SDS011;33336;36.728;-4.414;2023-04-24T19:56:29;6.00;;;2.63;;
47617;SDS011;33336;36.728;-4.414;2023-04-24T20:01:33;6.03;;;2.95;;
47617;SDS011;33336;36.728;-4.414;2023-04-24T20:06:36;5.93;;;3.38;;
47617;SDS011;33336;36.728;-4.414;2023-04-24T20:11:40;7.20;;;3.50;;
47617;SDS011;33336;36.728;-4.414;2023-04-24T20:16:44;8.02;;;2.85;;
47617;SDS011;33336;36.728;-4.414;2023-04-24T20:21:47;8.43;;;4.47;;
47617;SDS011;33336;36.728;-4.414;2023-04-24T20:26:52;6.68;;;3.45;;
47617;SDS011;33336;36.728;-4.414;2023-04-24T20:31:55;5.15;;;3.30;;
47617;SDS011;33336;36.728;-4.414;2023-04-24T20:36:58;8.77;;;4.22;;
47617;SDS011;33336;36.728;-4.414;2023-04-24T20:42:06;7.93;;;3.28;;
47617;SDS011;33336;36.728;-4.414;2023-04-24T20:47:10;9.32;;;4.03;;
47617;SDS011;33336;36.728;-4.414;2023-04-24T20:52:13;8.50;;;4.38;;
47617;SDS011;33336;36.728;-4.414;2023-04-24T20:57:17;13.50;;;5.28;;
47617;SDS011;33336;36.728;-4.414;2023-04-24T21:02:21;5.43;;;2.70;;
47617;SDS011;33336;36.728;-4.414;2023-04-24T21:07:24;6.57;;;2.50;;
47617;SDS011;33336;36.728;-4.414;2023-04-24T21:12:28;6.88;;;2.83;;
47617;SDS011;33336;36.728;-4.414;2023-04-24T21:17:31;8.88;;;3.83;;
47617;SDS011;33336;36.728;-4.414;2023-04-24T21:22:35;6.47;;;4.78;;
47617;SDS011;33336;36.728;-4.414;2023-04-24T21:27:39;8.90;;;4.95;;
47617;SDS011;33336;36.728;-4.414;2023-04-24T21:32:43;10.73;;;5.22;;
47617;SDS011;33336;36.728;-4.414;2023-04-24T21:37:46;13.27;;;5.40;;
47617;SDS011;33336;36.728;-4.414;2023-04-24T21:42:50;6.25;;;3.80;;
47617;SDS011;33336;36.728;-4.414;2023-04-24T21:47:53;10.00;;;5.15;;
47617;SDS011;33336;36.728;-4.414;2023-04-24T21:52:58;5.82;;;2.88;;
47617;SDS011;33336;36.728;-4.414;2023-04-24T21:58:02;5.68;;;3.33;;
47617;SDS011;33336;36.728;-4.414;2023-04-24T22:03:06;6.07;;;3.22;;
47617;SDS011;33336;36.728;-4.414;2023-04-24T22:08:09;11.10;;;3.22;;
47617;SDS011;33336;36.728;-4.414;2023-04-24T22:13:13;9.93;;;3.33;;
47617;SDS011;33336;36.728;-4.414;2023-04-24T22:18:16;5.35;;;2.88;;
47617;SDS011;33336;36.728;-4.414;2023-04-24T22:23:20;5.05;;;3.20;;
47617;SDS011;33336;36.728;-4.414;2023-04-24T22:28:25;4.28;;;2.67;;
47617;SDS011;33336;36.728;-4.414;2023-04-24T22:33:28;5.68;;;2.97;;
47617;SDS011;33336;36.728;-4.414;2023-04-24T22:38:31;4.82;;;2.72;;
47617;SDS011;33336;36.728;-4.414;2023-04-24T22:43:35;4.25;;;2.70;;
47617;SDS011;33336;36.728;-4.414;2023-04-24T22:48:39;4.78;;;2.47;;
47617;SDS011;33336;36.728;-4.414;2023-04-24T22:53:42;5.38;;;2.70;;
47617;SDS011;33336;36.728;-4.414;2023-04-24T22:58:46;6.45;;;2.78;;
47617;SDS011;33336;36.728;-4.414;2023-04-24T23:03:50;6.82;;;3.03;;
47617;SDS011;33336;36.728;-4.414;2023-04-24T23:08:53;7.78;;;3.22;;
47617;SDS011;33336;36.728;-4.414;2023-04-24T23:13:57;6.95;;;3.17;;
47617;SDS011;33336;36.728;-4.414;2023-04-24T23:19:00;4.45;;;2.80;;
47617;SDS011;33336;36.728;-4.414;2023-04-24T23:24:04;7.00;;;2.72;;
47617;SDS011;33336;36.728;-4.414;2023-04-24T23:29:09;7.07;;;2.33;;
47617;SDS011;33336;36.728;-4.414;2023-04-24T23:34:12;3.92;;;2.28;;
47617;SDS011;33336;36.728;-4.414;2023-04-24T23:39:17;3.92;;;1.88;;
47617;SDS011;33336;36.728;-4.414;2023-04-24T23:44:22;3.83;;;2.65;;
47617;SDS011;33336;36.728;-4.414;2023-04-24T23:49:25;6.10;;;2.45;;
47617;SDS011;33336;36.728;-4.414;2023-04-24T23:54:29;6.40;;;2.67;;
47617;SDS011;33336;36.728;-4.414;2023-04-24T23:59:33;6.38;;;2.50;;
